sensor_id;sensor_type;location;lat;lon;timestamp;pressure;altitude;pressure_sealevel;temperature;humidity
27202;BME280;14717;46.924;15.474;2022-07-06T00:01:47;98125.72;;;18.27;90.25
27202;BME280;14717;46.924;15.474;2022-07-06T00:04:13;98133.34;;;18.18;90.47
27202;BME280;14717;46.924;15.474;2022-07-06T00:06:39;98128.72;;;18.22;90.58
27202;BME280;14717;46.924;15.474;2022-07-06T00:09:05;98120.56;;;18.45;89.00
27202;BME280;14717;46.924;15.474;2022-07-06T00:11:31;98119.19;;;18.51;89.36
27202;BME280;14717;46.924;15.474;2022-07-06T00:13:56;98112.44;;;18.52;90.44
27202;BME280;14717;46.924;15.474;2022-07-06T00:16:22;98121.56;;;18.41;89.59
27202;BME280;14717;46.924;15.474;2022-07-06T00:18:48;98114.06;;;18.53;90.49
27202;BME280;14717;46.924;15.474;2022-07-06T00:21:13;98108.47;;;18.53;89.95
27202;BME280;14717;46.924;15.474;2022-07-06T00:23:39;98107.81;;;18.56;89.98
27202;BME280;14717;46.924;15.474;2022-07-06T00:26:04;98106.38;;;18.50;89.22
27202;BME280;14717;46.924;15.474;2022-07-06T00:28:30;98106.06;;;18.43;90.02
27202;BME280;14717;46.924;15.474;2022-07-06T00:30:56;98113.94;;;18.13;90.63
27202;BME280;14717;46.924;15.474;2022-07-06T00:33:21;98117.00;;;17.74;93.49
27202;BME280;14717;46.924;15.474;2022-07-06T00:35:47;98114.34;;;17.78;95.40
27202;BME280;14717;46.924;15.474;2022-07-06T00:38:13;98119.47;;;17.67;95.10
27202;BME280;14717;46.924;15.474;2022-07-06T00:40:38;98127.91;;;17.50;96.47
27202;BME280;14717;46.924;15.474;2022-07-06T00:43:04;98127.38;;;17.65;96.59
27202;BME280;14717;46.924;15.474;2022-07-06T00:45:29;98132.47;;;17.63;95.47
27202;BME280;14717;46.924;15.474;2022-07-06T00:47:55;98141.38;;;17.48;96.72
27202;BME280;14717;46.924;15.474;2022-07-06T00:50:21;98143.03;;;17.33;96.82
27202;BME280;14717;46.924;15.474;2022-07-06T00:52:52;98141.53;;;17.27;97.28
27202;BME280;14717;46.924;15.474;2022-07-06T00:55:21;98142.19;;;17.41;96.02
27202;BME280;14717;46.924;15.474;2022-07-06T00:57:48;98142.69;;;17.34;96.25
27202;BME280;14717;46.924;15.474;2022-07-06T01:00:16;98143.84;;;17.33;95.58
27202;BME280;14717;46.924;15.474;2022-07-06T01:02:42;98148.09;;;17.14;96.10
27202;BME280;14717;46.924;15.474;2022-07-06T01:05:10;98149.56;;;17.11;96.80
27202;BME280;14717;46.924;15.474;2022-07-06T01:07:37;98146.94;;;17.15;96.38
27202;BME280;14717;46.924;15.474;2022-07-06T01:10:04;98148.56;;;16.99;97.22
27202;BME280;14717;46.924;15.474;2022-07-06T01:12:30;98140.53;;;17.06;98.12
27202;BME280;14717;46.924;15.474;2022-07-06T01:14:56;98154.16;;;16.99;97.83
27202;BME280;14717;46.924;15.474;2022-07-06T01:17:22;98146.59;;;16.91;98.88
27202;BME280;14717;46.924;15.474;2022-07-06T01:19:48;98148.03;;;16.89;98.22
27202;BME280;14717;46.924;15.474;2022-07-06T01:22:13;98147.38;;;16.83;99.14
27202;BME280;14717;46.924;15.474;2022-07-06T01:24:39;98145.72;;;16.82;98.73
27202;BME280;14717;46.924;15.474;2022-07-06T01:27:06;98139.34;;;16.90;99.07
27202;BME280;14717;46.924;15.474;2022-07-06T01:29:33;98126.56;;;16.89;98.27
27202;BME280;14717;46.924;15.474;2022-07-06T01:31:59;98141.66;;;16.88;98.45
27202;BME280;14717;46.924;15.474;2022-07-06T01:34:25;98136.06;;;17.05;98.35
27202;BME280;14717;46.924;15.474;2022-07-06T01:36:51;98129.53;;;17.18;96.85
27202;BME280;14717;46.924;15.474;2022-07-06T01:39:16;98135.59;;;17.03;96.00
27202;BME280;14717;46.924;15.474;2022-07-06T01:41:41;98124.75;;;16.85;96.84
27202;BME280;14717;46.924;15.474;2022-07-06T01:44:07;98131.28;;;16.72;97.34
27202;BME280;14717;46.924;15.474;2022-07-06T01:46:33;98127.84;;;16.83;97.56
27202;BME280;14717;46.924;15.474;2022-07-06T01:48:59;98133.72;;;16.65;97.34
27202;BME280;14717;46.924;15.474;2022-07-06T01:51:24;98137.50;;;16.69;97.67
27202;BME280;14717;46.924;15.474;2022-07-06T01:53:50;98140.44;;;16.64;97.49
27202;BME280;14717;46.924;15.474;2022-07-06T01:56:16;98141.53;;;16.46;98.02
27202;BME280;14717;46.924;15.474;2022-07-06T01:58:46;98153.03;;;16.45;99.23
27202;BME280;14717;46.924;15.474;2022-07-06T02:01:14;98164.28;;;16.78;97.55
27202;BME280;14717;46.924;15.474;2022-07-06T02:03:40;98167.09;;;16.87;96.62
27202;BME280;14717;46.924;15.474;2022-07-06T02:06:06;98172.16;;;16.76;95.55
27202;BME280;14717;46.924;15.474;2022-07-06T02:08:33;98177.13;;;16.96;94.87
27202;BME280;14717;46.924;15.474;2022-07-06T02:10:58;98175.66;;;17.07;94.84
27202;BME280;14717;46.924;15.474;2022-07-06T02:13:24;98182.56;;;17.18;94.24
27202;BME280;14717;46.924;15.474;2022-07-06T02:15:50;98175.31;;;16.92;94.21
27202;BME280;14717;46.924;15.474;2022-07-06T02:18:15;98177.97;;;17.05;95.12
27202;BME280;14717;46.924;15.474;2022-07-06T02:20:41;98178.81;;;17.14;94.17
27202;BME280;14717;46.924;15.474;2022-07-06T02:23:06;98173.25;;;17.31;93.08
27202;BME280;14717;46.924;15.474;2022-07-06T02:25:32;98179.81;;;17.26;92.60
27202;BME280;14717;46.924;15.474;2022-07-06T02:27:57;98177.44;;;16.86;94.50
27202;BME280;14717;46.924;15.474;2022-07-06T02:30:22;98182.06;;;16.99;95.17
27202;BME280;14717;46.924;15.474;2022-07-06T02:32:48;98179.97;;;16.58;96.52
27202;BME280;14717;46.924;15.474;2022-07-06T02:35:13;98175.94;;;16.72;97.30
27202;BME280;14717;46.924;15.474;2022-07-06T02:37:39;98174.19;;;16.93;95.12
27202;BME280;14717;46.924;15.474;2022-07-06T02:40:05;98177.72;;;16.60;95.64
27202;BME280;14717;46.924;15.474;2022-07-06T02:42:31;98170.78;;;16.49;96.32
27202;BME280;14717;46.924;15.474;2022-07-06T02:44:56;98161.78;;;16.60;96.65
27202;BME280;14717;46.924;15.474;2022-07-06T02:47:21;98161.97;;;16.72;96.07
27202;BME280;14717;46.924;15.474;2022-07-06T02:49:47;98155.19;;;16.56;95.10
27202;BME280;14717;46.924;15.474;2022-07-06T02:52:13;98162.78;;;16.64;94.54
27202;BME280;14717;46.924;15.474;2022-07-06T02:54:38;98160.78;;;16.56;95.45
27202;BME280;14717;46.924;15.474;2022-07-06T02:57:04;98148.84;;;16.72;95.80
27202;BME280;14717;46.924;15.474;2022-07-06T02:59:29;98161.03;;;16.38;95.45
27202;BME280;14717;46.924;15.474;2022-07-06T03:01:55;98149.28;;;16.19;97.49
27202;BME280;14717;46.924;15.474;2022-07-06T03:04:20;98160.72;;;16.09;99.46
27202;BME280;14717;46.924;15.474;2022-07-06T03:06:45;98161.16;;;15.94;100.00
27202;BME280;14717;46.924;15.474;2022-07-06T03:09:11;98167.41;;;16.00;100.00
27202;BME280;14717;46.924;15.474;2022-07-06T03:11:36;98165.28;;;16.05;100.00
27202;BME280;14717;46.924;15.474;2022-07-06T03:14:05;98169.28;;;16.13;99.09
27202;BME280;14717;46.924;15.474;2022-07-06T03:16:31;98165.91;;;15.94;99.85
27202;BME280;14717;46.924;15.474;2022-07-06T03:18:57;98167.47;;;15.86;100.00
27202;BME280;14717;46.924;15.474;2022-07-06T03:21:23;98164.34;;;15.79;100.00
27202;BME280;14717;46.924;15.474;2022-07-06T03:23:49;98177.09;;;15.80;100.00
27202;BME280;14717;46.924;15.474;2022-07-06T03:26:14;98182.91;;;15.84;100.00
27202;BME280;14717;46.924;15.474;2022-07-06T03:28:40;98176.97;;;15.85;100.00
27202;BME280;14717;46.924;15.474;2022-07-06T03:31:05;98173.91;;;16.17;100.00
27202;BME280;14717;46.924;15.474;2022-07-06T03:33:31;98179.59;;;16.42;98.83
27202;BME280;14717;46.924;15.474;2022-07-06T03:35:56;98181.44;;;16.47;98.21
27202;BME280;14717;46.924;15.474;2022-07-06T03:38:22;98177.50;;;16.56;97.11
27202;BME280;14717;46.924;15.474;2022-07-06T03:40:47;98179.97;;;16.58;97.68
27202;BME280;14717;46.924;15.474;2022-07-06T03:43:13;98183.16;;;16.73;96.90
27202;BME280;14717;46.924;15.474;2022-07-06T03:45:38;98179.06;;;16.87;95.18
27202;BME280;14717;46.924;15.474;2022-07-06T03:48:04;98174.97;;;16.85;95.13
27202;BME280;14717;46.924;15.474;2022-07-06T03:50:29;98166.44;;;16.90;94.68
27202;BME280;14717;46.924;15.474;2022-07-06T03:52:55;98169.56;;;16.97;94.67
27202;BME280;14717;46.924;15.474;2022-07-06T03:55:21;98174.19;;;17.01;95.54
27202;BME280;14717;46.924;15.474;2022-07-06T03:57:46;98172.06;;;17.15;93.83
27202;BME280;14717;46.924;15.474;2022-07-06T04:00:12;98167.50;;;17.27;93.32
27202;BME280;14717;46.924;15.474;2022-07-06T04:02:38;98167.69;;;17.31;93.09
27202;BME280;14717;46.924;15.474;2022-07-06T04:05:03;98169.50;;;17.35;92.71
27202;BME280;14717;46.924;15.474;2022-07-06T04:07:29;98167.50;;;17.36;92.61
27202;BME280;14717;46.924;15.474;2022-07-06T04:09:55;98169.97;;;17.29;93.05
27202;BME280;14717;46.924;15.474;2022-07-06T04:12:21;98159.94;;;17.36;95.03
27202;BME280;14717;46.924;15.474;2022-07-06T04:14:46;98164.06;;;17.47;92.99
27202;BME280;14717;46.924;15.474;2022-07-06T04:17:11;98168.66;;;17.60;89.64
27202;BME280;14717;46.924;15.474;2022-07-06T04:19:55;98165.88;;;17.60;89.24
27202;BME280;14717;46.924;15.474;2022-07-06T04:22:21;98165.34;;;17.49;89.95
27202;BME280;14717;46.924;15.474;2022-07-06T04:24:46;98166.19;;;17.58;89.76
27202;BME280;14717;46.924;15.474;2022-07-06T04:27:12;98161.25;;;17.64;88.64
27202;BME280;14717;46.924;15.474;2022-07-06T04:29:37;98171.13;;;17.70;88.83
27202;BME280;14717;46.924;15.474;2022-07-06T04:32:03;98163.69;;;17.82;87.28
27202;BME280;14717;46.924;15.474;2022-07-06T04:34:28;98158.03;;;17.99;86.01
27202;BME280;14717;46.924;15.474;2022-07-06T04:36:54;98157.38;;;18.02;87.25
27202;BME280;14717;46.924;15.474;2022-07-06T04:39:19;98162.00;;;17.98;87.73
27202;BME280;14717;46.924;15.474;2022-07-06T04:41:45;98155.56;;;17.97;86.30
27202;BME280;14717;46.924;15.474;2022-07-06T04:44:10;98154.94;;;17.92;86.32
27202;BME280;14717;46.924;15.474;2022-07-06T04:46:35;98158.41;;;17.81;87.43
27202;BME280;14717;46.924;15.474;2022-07-06T04:49:01;98158.41;;;17.89;88.19
27202;BME280;14717;46.924;15.474;2022-07-06T04:51:26;98162.19;;;17.93;88.12
27202;BME280;14717;46.924;15.474;2022-07-06T04:53:51;98166.16;;;17.84;87.96
27202;BME280;14717;46.924;15.474;2022-07-06T04:56:17;98168.16;;;17.75;89.59
27202;BME280;14717;46.924;15.474;2022-07-06T04:58:42;98162.06;;;17.81;88.81
27202;BME280;14717;46.924;15.474;2022-07-06T05:01:08;98157.94;;;17.70;87.96
27202;BME280;14717;46.924;15.474;2022-07-06T05:03:34;98172.44;;;17.64;89.63
27202;BME280;14717;46.924;15.474;2022-07-06T05:06:05;98167.31;;;17.74;88.67
27202;BME280;14717;46.924;15.474;2022-07-06T05:08:31;98161.91;;;17.61;89.12
27202;BME280;14717;46.924;15.474;2022-07-06T05:10:56;98169.47;;;17.60;89.99
27202;BME280;14717;46.924;15.474;2022-07-06T05:13:22;98168.31;;;17.61;90.14
27202;BME280;14717;46.924;15.474;2022-07-06T05:15:47;98169.94;;;17.79;87.78
27202;BME280;14717;46.924;15.474;2022-07-06T05:18:13;98165.69;;;17.73;90.09
27202;BME280;14717;46.924;15.474;2022-07-06T05:20:38;98177.16;;;17.89;89.45
27202;BME280;14717;46.924;15.474;2022-07-06T05:23:03;98172.38;;;18.14;87.34
27202;BME280;14717;46.924;15.474;2022-07-06T05:25:29;98167.66;;;18.35;87.79
27202;BME280;14717;46.924;15.474;2022-07-06T05:27:55;98179.91;;;18.59;85.20
27202;BME280;14717;46.924;15.474;2022-07-06T05:30:23;98182.81;;;18.71;83.73
27202;BME280;14717;46.924;15.474;2022-07-06T05:32:51;98171.09;;;18.77;82.30
27202;BME280;14717;46.924;15.474;2022-07-06T05:35:22;98169.50;;;18.97;83.33
27202;BME280;14717;46.924;15.474;2022-07-06T05:37:55;98188.25;;;19.05;82.92
27202;BME280;14717;46.924;15.474;2022-07-06T05:40:25;98177.56;;;18.98;82.70
27202;BME280;14717;46.924;15.474;2022-07-06T05:42:53;98183.22;;;19.19;81.08
27202;BME280;14717;46.924;15.474;2022-07-06T05:45:22;98186.22;;;19.34;81.45
27202;BME280;14717;46.924;15.474;2022-07-06T05:47:48;98184.53;;;19.41;81.29
27202;BME280;14717;46.924;15.474;2022-07-06T05:50:32;98192.94;;;19.41;81.34
27202;BME280;14717;46.924;15.474;2022-07-06T05:53:08;98180.09;;;19.61;80.10
27202;BME280;14717;46.924;15.474;2022-07-06T05:55:34;98181.84;;;19.65;79.95
27202;BME280;14717;46.924;15.474;2022-07-06T05:57:59;98180.94;;;19.73;79.20
27202;BME280;14717;46.924;15.474;2022-07-06T06:00:27;98187.31;;;19.82;78.60
27202;BME280;14717;46.924;15.474;2022-07-06T06:02:53;98183.91;;;19.97;77.83
27202;BME280;14717;46.924;15.474;2022-07-06T06:05:19;98189.53;;;19.97;77.66
27202;BME280;14717;46.924;15.474;2022-07-06T06:07:45;98184.28;;;20.07;77.57
27202;BME280;14717;46.924;15.474;2022-07-06T06:10:17;98181.97;;;20.21;76.38
27202;BME280;14717;46.924;15.474;2022-07-06T06:12:44;98182.81;;;20.21;78.17
27202;BME280;14717;46.924;15.474;2022-07-06T06:15:10;98180.38;;;20.32;75.99
27202;BME280;14717;46.924;15.474;2022-07-06T06:17:39;98177.72;;;20.47;74.67
27202;BME280;14717;46.924;15.474;2022-07-06T06:20:07;98184.56;;;20.70;75.02
27202;BME280;14717;46.924;15.474;2022-07-06T06:22:59;98186.56;;;20.93;76.00
27202;BME280;14717;46.924;15.474;2022-07-06T06:25:29;98176.38;;;21.00;73.31
27202;BME280;14717;46.924;15.474;2022-07-06T06:27:55;98177.06;;;20.97;72.77
27202;BME280;14717;46.924;15.474;2022-07-06T06:30:20;98174.50;;;21.04;73.23
27202;BME280;14717;46.924;15.474;2022-07-06T06:32:46;98177.06;;;20.97;72.94
27202;BME280;14717;46.924;15.474;2022-07-06T06:35:11;98181.88;;;21.09;72.46
27202;BME280;14717;46.924;15.474;2022-07-06T06:37:37;98183.81;;;21.32;72.86
27202;BME280;14717;46.924;15.474;2022-07-06T06:40:04;98174.88;;;21.66;70.57
27202;BME280;14717;46.924;15.474;2022-07-06T06:42:29;98175.00;;;21.96;72.29
27202;BME280;14717;46.924;15.474;2022-07-06T06:44:55;98169.28;;;22.08;69.47
27202;BME280;14717;46.924;15.474;2022-07-06T06:47:20;98176.19;;;22.23;67.40
27202;BME280;14717;46.924;15.474;2022-07-06T06:49:46;98172.38;;;22.03;67.32
27202;BME280;14717;46.924;15.474;2022-07-06T06:52:12;98170.47;;;22.34;65.85
27202;BME280;14717;46.924;15.474;2022-07-06T06:54:38;98173.06;;;22.55;64.76
27202;BME280;14717;46.924;15.474;2022-07-06T06:57:03;98169.03;;;22.40;64.27
27202;BME280;14717;46.924;15.474;2022-07-06T06:59:28;98165.25;;;22.64;65.24
27202;BME280;14717;46.924;15.474;2022-07-06T07:01:56;98166.13;;;22.52;62.62
27202;BME280;14717;46.924;15.474;2022-07-06T07:04:28;98169.16;;;22.74;62.06
27202;BME280;14717;46.924;15.474;2022-07-06T07:06:58;98161.34;;;23.14;61.91
27202;BME280;14717;46.924;15.474;2022-07-06T07:09:26;98167.38;;;23.31;58.83
27202;BME280;14717;46.924;15.474;2022-07-06T07:11:54;98158.34;;;23.41;61.23
27202;BME280;14717;46.924;15.474;2022-07-06T07:14:23;98164.41;;;23.58;61.02
27202;BME280;14717;46.924;15.474;2022-07-06T07:16:48;98168.28;;;23.69;57.29
27202;BME280;14717;46.924;15.474;2022-07-06T07:19:18;98169.19;;;23.73;58.26
27202;BME280;14717;46.924;15.474;2022-07-06T07:21:47;98162.00;;;23.95;56.97
27202;BME280;14717;46.924;15.474;2022-07-06T07:24:12;98176.03;;;24.10;57.62
27202;BME280;14717;46.924;15.474;2022-07-06T07:26:41;98159.38;;;24.24;57.63
27202;BME280;14717;46.924;15.474;2022-07-06T07:29:06;98152.97;;;24.27;55.63
27202;BME280;14717;46.924;15.474;2022-07-06T07:31:32;98154.97;;;24.45;55.54
27202;BME280;14717;46.924;15.474;2022-07-06T07:34:00;98159.75;;;24.22;55.44
27202;BME280;14717;46.924;15.474;2022-07-06T07:36:30;98150.72;;;24.32;57.35
27202;BME280;14717;46.924;15.474;2022-07-06T07:38:58;98152.84;;;24.39;56.54
27202;BME280;14717;46.924;15.474;2022-07-06T07:41:23;98151.31;;;24.63;58.19
27202;BME280;14717;46.924;15.474;2022-07-06T07:43:52;98155.44;;;24.69;55.04
27202;BME280;14717;46.924;15.474;2022-07-06T07:46:18;98151.75;;;24.91;56.60
27202;BME280;14717;46.924;15.474;2022-07-06T07:48:48;98144.09;;;25.14;55.97
27202;BME280;14717;46.924;15.474;2022-07-06T07:51:13;98151.16;;;25.01;59.02
27202;BME280;14717;46.924;15.474;2022-07-06T07:53:39;98152.38;;;25.25;52.46
27202;BME280;14717;46.924;15.474;2022-07-06T07:56:04;98151.09;;;25.45;51.50
27202;BME280;14717;46.924;15.474;2022-07-06T07:58:30;98147.47;;;25.48;55.71
27202;BME280;14717;46.924;15.474;2022-07-06T08:00:58;98159.53;;;25.68;53.67
27202;BME280;14717;46.924;15.474;2022-07-06T08:03:30;98149.69;;;25.87;50.18
27202;BME280;14717;46.924;15.474;2022-07-06T08:05:58;98159.16;;;25.98;47.72
27202;BME280;14717;46.924;15.474;2022-07-06T08:08:24;98162.50;;;26.07;50.04
27202;BME280;14717;46.924;15.474;2022-07-06T08:10:49;98155.81;;;25.93;50.15
27202;BME280;14717;46.924;15.474;2022-07-06T08:13:14;98147.03;;;26.34;48.89
27202;BME280;14717;46.924;15.474;2022-07-06T08:15:41;98148.53;;;26.57;47.38
27202;BME280;14717;46.924;15.474;2022-07-06T08:18:07;98150.16;;;26.58;48.06
27202;BME280;14717;46.924;15.474;2022-07-06T08:20:34;98147.88;;;26.70;46.14
27202;BME280;14717;46.924;15.474;2022-07-06T08:22:59;98149.81;;;26.63;46.58
27202;BME280;14717;46.924;15.474;2022-07-06T08:25:24;98148.78;;;26.85;48.64
27202;BME280;14717;46.924;15.474;2022-07-06T08:27:50;98159.44;;;26.91;47.33
27202;BME280;14717;46.924;15.474;2022-07-06T08:30:15;98150.91;;;26.91;45.51
27202;BME280;14717;46.924;15.474;2022-07-06T08:32:41;98152.94;;;26.91;46.49
27202;BME280;14717;46.924;15.474;2022-07-06T08:35:08;98164.56;;;26.79;48.95
27202;BME280;14717;46.924;15.474;2022-07-06T08:37:34;98162.03;;;27.06;47.01
27202;BME280;14717;46.924;15.474;2022-07-06T08:39:59;98161.16;;;27.02;44.67
27202;BME280;14717;46.924;15.474;2022-07-06T08:42:29;98159.00;;;27.39;45.30
27202;BME280;14717;46.924;15.474;2022-07-06T08:44:58;98155.16;;;27.61;46.03
27202;BME280;14717;46.924;15.474;2022-07-06T08:47:26;98147.72;;;27.42;42.63
27202;BME280;14717;46.924;15.474;2022-07-06T08:49:51;98147.38;;;27.04;45.44
27202;BME280;14717;46.924;15.474;2022-07-06T08:52:17;98141.16;;;27.35;46.27
27202;BME280;14717;46.924;15.474;2022-07-06T08:54:43;98142.78;;;27.36;44.52
27202;BME280;14717;46.924;15.474;2022-07-06T08:57:08;98138.94;;;27.61;41.96
27202;BME280;14717;46.924;15.474;2022-07-06T08:59:34;98136.63;;;27.84;43.93
27202;BME280;14717;46.924;15.474;2022-07-06T09:02:00;98139.53;;;28.05;41.96
27202;BME280;14717;46.924;15.474;2022-07-06T09:04:26;98132.56;;;27.85;40.92
27202;BME280;14717;46.924;15.474;2022-07-06T09:06:52;98143.69;;;28.14;41.52
27202;BME280;14717;46.924;15.474;2022-07-06T09:09:21;98142.34;;;27.91;42.78
27202;BME280;14717;46.924;15.474;2022-07-06T09:11:48;98133.28;;;27.72;40.46
27202;BME280;14717;46.924;15.474;2022-07-06T09:14:14;98124.56;;;28.08;37.67
27202;BME280;14717;46.924;15.474;2022-07-06T09:16:39;98134.47;;;28.59;40.71
27202;BME280;14717;46.924;15.474;2022-07-06T09:19:06;98132.16;;;29.02;39.21
27202;BME280;14717;46.924;15.474;2022-07-06T09:21:32;98127.25;;;28.99;37.23
27202;BME280;14717;46.924;15.474;2022-07-06T09:24:05;98128.88;;;28.83;39.79
27202;BME280;14717;46.924;15.474;2022-07-06T09:26:34;98129.25;;;28.68;36.19
27202;BME280;14717;46.924;15.474;2022-07-06T09:29:04;98125.63;;;28.88;33.02
27202;BME280;14717;46.924;15.474;2022-07-06T09:31:30;98135.25;;;28.45;34.36
27202;BME280;14717;46.924;15.474;2022-07-06T09:33:58;98126.75;;;28.56;33.67
27202;BME280;14717;46.924;15.474;2022-07-06T09:36:44;98138.13;;;28.45;34.74
27202;BME280;14717;46.924;15.474;2022-07-06T09:41:47;98122.56;;;28.08;34.92
27202;BME280;14717;46.924;15.474;2022-07-06T09:44:14;98123.78;;;28.07;36.24
27202;BME280;14717;46.924;15.474;2022-07-06T09:46:46;98120.63;;;28.33;35.22
27202;BME280;14717;46.924;15.474;2022-07-06T09:49:11;98123.81;;;28.21;36.42
27202;BME280;14717;46.924;15.474;2022-07-06T09:51:38;98118.94;;;28.18;33.42
27202;BME280;14717;46.924;15.474;2022-07-06T09:54:06;98131.09;;;28.08;33.11
27202;BME280;14717;46.924;15.474;2022-07-06T09:56:40;98119.59;;;27.87;33.92
27202;BME280;14717;46.924;15.474;2022-07-06T09:59:13;98133.06;;;27.41;35.23
27202;BME280;14717;46.924;15.474;2022-07-06T10:01:39;98122.31;;;27.67;32.70
27202;BME280;14717;46.924;15.474;2022-07-06T10:04:13;98133.00;;;27.90;35.31
27202;BME280;14717;46.924;15.474;2022-07-06T10:06:39;98134.59;;;27.88;34.35
27202;BME280;14717;46.924;15.474;2022-07-06T10:09:07;98134.34;;;28.10;34.42
27202;BME280;14717;46.924;15.474;2022-07-06T10:11:35;98138.47;;;28.30;34.40
27202;BME280;14717;46.924;15.474;2022-07-06T10:14:03;98132.00;;;28.40;34.02
27202;BME280;14717;46.924;15.474;2022-07-06T10:16:30;98137.69;;;28.33;34.10
27202;BME280;14717;46.924;15.474;2022-07-06T10:18:56;98142.53;;;28.29;31.89
27202;BME280;14717;46.924;15.474;2022-07-06T10:21:22;98129.28;;;28.95;30.43
27202;BME280;14717;46.924;15.474;2022-07-06T10:23:49;98124.38;;;29.65;30.10
27202;BME280;14717;46.924;15.474;2022-07-06T10:26:16;98114.13;;;29.95;29.65
27202;BME280;14717;46.924;15.474;2022-07-06T10:28:42;98129.69;;;29.11;31.61
27202;BME280;14717;46.924;15.474;2022-07-06T10:31:10;98130.47;;;28.80;32.76
27202;BME280;14717;46.924;15.474;2022-07-06T10:33:36;98128.78;;;28.52;34.81
27202;BME280;14717;46.924;15.474;2022-07-06T10:36:03;98134.97;;;27.83;34.05
27202;BME280;14717;46.924;15.474;2022-07-06T10:38:31;98133.25;;;27.61;33.86
27202;BME280;14717;46.924;15.474;2022-07-06T10:41:05;98129.44;;;28.07;33.44
27202;BME280;14717;46.924;15.474;2022-07-06T10:43:35;98128.75;;;28.38;34.27
27202;BME280;14717;46.924;15.474;2022-07-06T10:46:13;98126.84;;;28.97;33.57
27202;BME280;14717;46.924;15.474;2022-07-06T10:48:42;98113.84;;;28.89;32.39
27202;BME280;14717;46.924;15.474;2022-07-06T10:51:09;98115.06;;;29.44;33.43
27202;BME280;14717;46.924;15.474;2022-07-06T10:53:40;98122.41;;;29.24;33.61
27202;BME280;14717;46.924;15.474;2022-07-06T10:56:08;98122.78;;;29.02;31.92
27202;BME280;14717;46.924;15.474;2022-07-06T10:58:37;98111.81;;;29.35;34.90
27202;BME280;14717;46.924;15.474;2022-07-06T11:01:05;98118.28;;;28.87;33.50
27202;BME280;14717;46.924;15.474;2022-07-06T11:06:20;98108.53;;;29.47;31.03
27202;BME280;14717;46.924;15.474;2022-07-06T11:08:56;98109.31;;;29.71;32.58
27202;BME280;14717;46.924;15.474;2022-07-06T11:13:49;98110.97;;;29.59;30.14
27202;BME280;14717;46.924;15.474;2022-07-06T11:16:17;98111.38;;;29.54;31.63
27202;BME280;14717;46.924;15.474;2022-07-06T11:19:00;98109.75;;;29.11;31.65
27202;BME280;14717;46.924;15.474;2022-07-06T11:21:43;98105.28;;;29.38;34.29
27202;BME280;14717;46.924;15.474;2022-07-06T11:24:11;98096.75;;;29.27;30.87
27202;BME280;14717;46.924;15.474;2022-07-06T11:26:37;98107.72;;;29.43;32.16
27202;BME280;14717;46.924;15.474;2022-07-06T11:29:04;98095.06;;;29.78;30.16
27202;BME280;14717;46.924;15.474;2022-07-06T11:31:34;98098.75;;;29.48;32.39
27202;BME280;14717;46.924;15.474;2022-07-06T11:34:02;98097.16;;;29.40;31.28
27202;BME280;14717;46.924;15.474;2022-07-06T11:36:27;98097.16;;;29.26;31.92
27202;BME280;14717;46.924;15.474;2022-07-06T11:38:53;98091.47;;;29.26;32.22
27202;BME280;14717;46.924;15.474;2022-07-06T11:41:18;98088.63;;;29.12;31.06
27202;BME280;14717;46.924;15.474;2022-07-06T11:43:45;98092.19;;;29.71;29.89
27202;BME280;14717;46.924;15.474;2022-07-06T11:46:22;98093.00;;;29.79;30.12
27202;BME280;14717;46.924;15.474;2022-07-06T11:48:59;98096.34;;;29.01;31.54
27202;BME280;14717;46.924;15.474;2022-07-06T11:51:27;98092.66;;;29.18;32.13
27202;BME280;14717;46.924;15.474;2022-07-06T11:53:55;98093.09;;;29.34;34.63
27202;BME280;14717;46.924;15.474;2022-07-06T11:56:22;98077.63;;;28.97;30.88
27202;BME280;14717;46.924;15.474;2022-07-06T11:58:53;98082.50;;;28.69;30.11
27202;BME280;14717;46.924;15.474;2022-07-06T12:01:19;98083.13;;;28.03;30.35
27202;BME280;14717;46.924;15.474;2022-07-06T12:03:45;98089.66;;;28.11;31.27
27202;BME280;14717;46.924;15.474;2022-07-06T12:06:20;98082.94;;;28.91;33.13
27202;BME280;14717;46.924;15.474;2022-07-06T12:08:49;98081.69;;;29.10;33.23
27202;BME280;14717;46.924;15.474;2022-07-06T12:11:23;98071.94;;;29.31;29.47
27202;BME280;14717;46.924;15.474;2022-07-06T12:13:54;98080.84;;;29.51;31.15
27202;BME280;14717;46.924;15.474;2022-07-06T12:16:21;98085.38;;;29.31;30.85
27202;BME280;14717;46.924;15.474;2022-07-06T12:18:49;98076.84;;;28.86;34.49
27202;BME280;14717;46.924;15.474;2022-07-06T12:21:17;98084.94;;;28.73;31.24
27202;BME280;14717;46.924;15.474;2022-07-06T12:23:48;98086.50;;;28.40;31.27
27202;BME280;14717;46.924;15.474;2022-07-06T12:26:16;98077.19;;;28.57;32.09
27202;BME280;14717;46.924;15.474;2022-07-06T12:28:42;98080.47;;;29.00;31.62
27202;BME280;14717;46.924;15.474;2022-07-06T12:31:08;98071.50;;;29.47;32.03
27202;BME280;14717;46.924;15.474;2022-07-06T12:33:34;98080.81;;;29.64;31.76
27202;BME280;14717;46.924;15.474;2022-07-06T12:36:29;98070.88;;;30.07;29.71
27202;BME280;14717;46.924;15.474;2022-07-06T12:38:54;98067.72;;;29.91;31.92
27202;BME280;14717;46.924;15.474;2022-07-06T12:41:33;98065.22;;;30.00;30.02
27202;BME280;14717;46.924;15.474;2022-07-06T12:44:09;98061.28;;;29.56;30.57
27202;BME280;14717;46.924;15.474;2022-07-06T12:46:40;98067.84;;;29.53;30.64
27202;BME280;14717;46.924;15.474;2022-07-06T12:49:22;98060.84;;;29.71;31.13
27202;BME280;14717;46.924;15.474;2022-07-06T12:54:48;98054.84;;;29.42;29.77
27202;BME280;14717;46.924;15.474;2022-07-06T12:57:16;98056.41;;;29.57;31.85
27202;BME280;14717;46.924;15.474;2022-07-06T12:59:55;98045.91;;;29.26;30.32
27202;BME280;14717;46.924;15.474;2022-07-06T13:02:25;98045.91;;;28.67;29.64